Time;durP1;ratioP1;P1;durP2;ratioP2;P2;SDS_P1;SDS_P2;PMS_P1;PMS_P2;Temp;Humidity;BMP_temperature;BMP_pressure;BME280_temperature;BME280_humidity;BME280_pressure;Samples;Min_cycle;Max_cycle;Signal;HPM_P1;HPM_P2
2022/03/09 00:07:55;;;;;;;22.35;10.38;;;;;;;0.62;54.65;101046.50;21029201;28;20132;-70
2022/03/09 00:18:00;;;;;;;21.90;9.35;;;;;;;0.55;54.42;101050.56;21029094;28;20056;-71
2022/03/09 00:28:01;;;;;;;21.55;8.57;;;;;;;0.29;55.57;101054.81;21028409;28;20453;-71
2022/03/09 00:38:06;;;;;;;18.67;8.95;;;;;;;0.07;56.46;101057.41;21027123;28;20131;-71
2022/03/09 00:48:07;;;;;;;19.88;9.38;;;;;;;-0.24;58.43;101052.78;21027556;28;20082;-70
2022/03/09 00:58:09;;;;;;;20.42;9.52;;;;;;;-0.45;59.74;101057.97;21025794;28;20516;-71
2022/03/09 01:08:13;;;;;;;18.47;9.17;;;;;;;-0.67;61.00;101066.53;21023925;28;20044;-71
2022/03/09 01:18:15;;;;;;;19.73;9.25;;;;;;;-0.78;62.39;101069.53;21028117;28;20489;-70
2022/03/09 01:28:19;;;;;;;19.45;9.43;;;;;;;-1.00;65.10;101069.50;21025039;28;20079;-70
2022/03/09 01:38:21;;;;;;;18.50;9.07;;;;;;;-1.33;64.74;101072.41;21022566;28;20052;-73
2022/03/09 01:48:24;;;;;;;18.73;9.30;;;;;;;-1.46;65.30;101061.53;21024927;28;20048;-71
2022/03/09 01:58:27;;;;;;;20.50;9.60;;;;;;;-1.72;66.18;101060.41;21023976;28;20155;-71
2022/03/09 02:18:50;;;;;;;19.67;9.18;;;;;;;-1.91;67.00;101051.88;21038502;28;20101;-72
2022/03/09 02:28:51;;;;;;;21.98;9.98;;;;;;;-1.89;67.45;101057.94;21037848;28;20044;-71
2022/03/09 02:38:53;;;;;;;20.67;8.38;;;;;;;-2.05;68.14;101059.75;21037993;28;20052;-72
2022/03/09 02:48:55;;;;;;;23.38;9.38;;;;;;;-2.04;68.12;101047.00;21038115;28;20451;-71
2022/03/09 02:58:56;;;;;;;22.38;9.38;;;;;;;-2.04;68.99;101062.38;21036463;28;20135;-72
2022/03/09 03:08:58;;;;;;;19.08;9.50;;;;;;;-2.19;68.41;101062.56;21034736;28;20052;-73
2022/03/09 03:18:59;;;;;;;24.17;9.77;;;;;;;-2.26;70.58;101075.91;21032907;28;20056;-72
2022/03/09 03:29:05;;;;;;;18.98;8.95;;;;;;;-2.34;70.62;101085.81;21032985;28;20056;-72
2022/03/09 03:39:06;;;;;;;19.75;8.85;;;;;;;-2.37;70.50;101083.09;21031436;28;20074;-72
2022/03/09 03:49:08;;;;;;;17.95;8.52;;;;;;;-2.47;72.57;101080.03;21028668;28;20048;-72
2022/03/09 03:59:09;;;;;;;19.48;8.82;;;;;;;-2.56;72.33;101093.28;21032510;28;20105;-73
2022/03/09 04:09:11;;;;;;;17.45;9.00;;;;;;;-2.65;72.83;101097.97;21029900;28;20093;-71
2022/03/09 04:19:12;;;;;;;17.08;8.38;;;;;;;-2.67;73.46;101092.78;21028668;28;20053;-72
2022/03/09 04:29:14;;;;;;;21.73;8.90;;;;;;;-2.76;73.24;101091.44;21031634;28;20044;-72
2022/03/09 04:39:15;;;;;;;19.55;9.57;;;;;;;-2.94;74.91;101099.97;21026005;28;20056;-72
2022/03/09 04:49:17;;;;;;;20.33;9.23;;;;;;;-3.05;75.25;101090.91;21029412;28;20048;-72
2022/03/09 04:59:18;;;;;;;19.52;9.38;;;;;;;-3.11;75.97;101095.72;21026640;28;20481;-73
2022/03/09 05:09:20;;;;;;;20.65;9.95;;;;;;;-3.15;77.58;101121.97;21028364;28;20193;-72
2022/03/09 05:19:21;;;;;;;22.38;10.63;;;;;;;-3.24;77.78;101113.81;21024015;28;20097;-72
2022/03/09 05:29:23;;;;;;;20.52;9.50;;;;;;;-3.37;79.60;101125.09;21023941;28;20048;-71
2022/03/09 05:39:24;;;;;;;19.73;9.95;;;;;;;-3.39;79.12;101132.72;21029780;28;20661;-71
2022/03/09 05:49:26;;;;;;;27.63;11.55;;;;;;;-3.50;80.64;101141.50;21039964;28;20518;-71
2022/03/09 05:59:27;;;;;;;20.63;9.70;;;;;;;-3.56;81.13;101148.84;21039482;28;20057;-71
2022/03/09 06:09:29;;;;;;;22.88;11.63;;;;;;;-3.67;80.60;101160.22;21037340;28;20110;-71
2022/03/09 06:19:31;;;;;;;22.65;10.30;;;;;;;-3.52;80.14;101178.94;21039985;28;20462;-71
2022/03/09 06:29:32;;;;;;;35.20;16.42;;;;;;;-3.42;80.14;101191.41;21038702;28;20101;-71
2022/03/09 06:39:34;;;;;;;28.55;13.65;;;;;;;-3.13;79.08;101218.56;21037370;28;20497;-71
2022/03/09 06:49:35;;;;;;;37.53;13.07;;;;;;;-2.82;77.17;101220.16;21034576;28;20052;-72
2022/03/09 06:59:37;;;;;;;30.15;13.38;;;;;;;-2.43;76.08;101228.97;21034743;28;20460;-71
2022/03/09 07:09:38;;;;;;;34.85;16.05;;;;;;;-2.11;75.10;101229.66;21033667;28;20074;-71
2022/03/09 07:19:40;;;;;;;25.90;12.68;;;;;;;-1.72;75.06;101234.97;21035763;28;20557;-72
2022/03/09 07:29:41;;;;;;;27.15;12.75;;;;;;;-1.34;72.59;101229.03;21032687;28;20421;-71
2022/03/09 07:39:43;;;;;;;29.80;13.52;;;;;;;-1.07;70.84;101230.25;21028816;28;20060;-71
2022/03/09 07:49:44;;;;;;;33.63;12.38;;;;;;;-0.67;68.32;101246.53;21030305;28;20117;-71
2022/03/09 07:59:46;;;;;;;27.08;12.80;;;;;;;-0.18;65.31;101243.47;21029597;28;20478;-71
2022/03/09 08:09:47;;;;;;;25.35;10.60;;;;;;;0.37;63.79;101251.69;21025363;28;20052;-72
2022/03/09 08:19:49;;;;;;;23.33;9.60;;;;;;;0.71;60.64;101261.59;21023732;28;20056;-71
2022/03/09 08:29:50;;;;;;;19.75;10.27;;;;;;;0.96;59.83;101260.84;21035179;28;20052;-71
2022/03/09 08:39:52;;;;;;;20.33;9.88;;;;;;;1.37;55.40;101258.00;21015401;28;20044;-71
2022/03/09 08:49:53;;;;;;;21.15;10.18;;;;;;;1.47;56.65;101257.47;21015070;28;20497;-72
2022/03/09 09:00:15;;;;;;;22.85;10.00;;;;;;;1.79;55.61;101254.31;21026150;28;20105;-71
2022/03/09 09:10:16;;;;;;;22.50;11.10;;;;;;;2.04;54.89;101249.94;21020319;28;20052;-72
2022/03/09 09:20:20;;;;;;;23.05;10.90;;;;;;;2.67;53.73;101255.34;21017109;28;20479;-70
2022/03/09 09:30:23;;;;;;;24.17;11.30;;;;;;;3.21;53.30;101250.03;21016480;28;20460;-71
2022/03/09 09:40:25;;;;;;;25.42;10.50;;;;;;;3.59;51.56;101248.47;21022110;28;20468;-71
2022/03/09 09:50:27;;;;;;;23.77;11.35;;;;;;;3.90;50.77;101227.66;21014669;28;20052;-71
2022/03/09 10:00:29;;;;;;;22.60;12.48;;;;;;;4.33;50.11;101212.28;21014752;28;20053;-71
2022/03/09 10:10:38;;;;;;;20.33;11.18;;;;;;;4.50;49.19;101202.25;21018240;28;20113;-74
2022/03/09 10:20:40;;;;;;;25.43;12.17;;;;;;;5.05;48.42;101210.34;21016040;28;20078;-70
2022/03/09 10:30:42;;;;;;;28.77;11.80;;;;;;;5.46;45.17;101205.94;21028658;28;20048;-71
2022/03/09 10:40:47;;;;;;;20.63;11.15;;;;;;;5.89;47.51;101201.44;21028026;28;20053;-72
2022/03/09 10:50:53;;;;;;;21.90;11.13;;;;;;;6.30;41.88;101188.25;21027540;28;20052;-69
2022/03/09 11:00:56;;;;;;;21.85;11.57;;;;;;;6.41;40.85;101195.34;21025949;28;20138;-71
2022/03/09 11:10:58;;;;;;;23.65;12.75;;;;;;;6.56;40.61;101176.44;20991296;28;20074;-71
2022/03/09 11:21:03;;;;;;;22.17;12.15;;;;;;;6.92;39.11;101165.63;21029416;28;20048;-71
2022/03/09 11:31:07;;;;;;;20.93;10.93;;;;;;;7.26;40.51;101160.78;21024687;28;20768;-71
2022/03/09 11:41:27;;;;;;;25.23;12.13;;;;;;;7.42;40.79;101162.66;21023811;28;20063;-72
2022/03/09 11:51:29;;;;;;;24.58;11.52;;;;;;;7.74;38.47;101149.06;21023815;28;20412;-71
2022/03/09 12:01:30;;;;;;;18.38;10.93;;;;;;;7.68;39.37;101152.50;21020736;28;20052;-71
2022/03/09 12:12:08;;;;;;;26.55;13.63;;;;;;;7.72;38.30;101146.44;21039391;28;20322;-71
2022/03/09 12:22:10;;;;;;;24.13;13.10;;;;;;;8.11;37.03;101138.88;21026179;28;20076;-72
2022/03/09 12:32:13;;;;;;;27.23;13.70;;;;;;;8.51;35.42;101126.94;21018814;28;20090;-72
2022/03/09 12:42:15;;;;;;;25.63;13.55;;;;;;;8.66;35.93;101113.09;21018690;28;20659;-72
2022/03/09 12:52:19;;;;;;;27.02;13.95;;;;;;;8.66;35.71;101107.88;20993380;28;20068;-72
2022/03/09 13:02:22;;;;;;;25.48;14.55;;;;;;;8.81;35.26;101097.47;21024597;28;20514;-72
2022/03/09 13:12:25;;;;;;;30.00;15.13;;;;;;;8.94;34.68;101090.53;21018128;28;20048;-76
2022/03/09 13:22:26;;;;;;;27.92;15.18;;;;;;;8.82;35.54;101082.69;21030334;28;20048;-72
2022/03/09 13:32:29;;;;;;;32.50;16.58;;;;;;;9.40;33.38;101067.94;21016128;28;20070;-73
2022/03/09 13:42:37;;;;;;;29.92;16.90;;;;;;;9.64;34.64;101053.13;21026717;28;20470;-73
2022/03/09 13:52:38;;;;;;;29.40;14.38;;;;;;;9.57;34.30;101049.63;21017431;28;20505;-72
2022/03/09 14:02:40;;;;;;;27.90;15.75;;;;;;;10.03;32.44;101039.94;21028361;28;20048;-72
2022/03/09 14:12:45;;;;;;;32.58;15.27;;;;;;;10.21;31.73;101036.38;21031574;28;20059;-73
2022/03/09 14:22:49;;;;;;;30.20;14.98;;;;;;;10.02;31.86;101026.88;21031314;28;20432;-72
2022/03/09 14:32:50;;;;;;;27.40;14.40;;;;;;;10.16;32.12;101012.00;21030543;28;20033;-72
2022/03/09 14:42:53;;;;;;;26.27;14.57;;;;;;;9.95;31.70;101012.91;21028432;28;20094;-73
2022/03/09 14:52:56;;;;;;;20.60;12.75;;;;;;;10.42;30.02;100990.94;21027281;28;20055;-76
2022/03/09 15:02:58;;;;;;;23.38;12.82;;;;;;;10.49;29.95;100995.28;21029519;28;20101;-73
2022/03/09 15:13:04;;;;;;;24.55;13.18;;;;;;;10.12;32.05;100991.06;21026031;28;20052;-73
2022/03/09 15:23:06;;;;;;;24.45;13.50;;;;;;;10.16;30.78;100983.19;21024603;28;20060;-76
2022/03/09 15:33:07;;;;;;;23.35;12.93;;;;;;;10.26;31.10;100979.69;21023985;28;20055;-75
2022/03/09 15:43:09;;;;;;;23.35;13.88;;;;;;;10.42;31.16;100988.31;21027227;28;20393;-75
2022/03/09 15:53:11;;;;;;;25.52;12.73;;;;;;;9.83;32.82;100989.44;20981168;28;20056;-73
2022/03/09 16:03:12;;;;;;;23.80;12.50;;;;;;;9.93;32.59;100980.69;21004279;28;20044;-75
2022/03/09 16:13:16;;;;;;;23.95;13.57;;;;;;;10.15;30.77;100972.72;21024509;28;20048;-74
2022/03/09 16:23:18;;;;;;;26.27;13.57;;;;;;;10.22;30.96;100983.16;21020894;28;20075;-74
2022/03/09 16:33:19;;;;;;;22.33;13.05;;;;;;;10.07;30.72;100982.38;21021954;28;20052;-74
2022/03/09 16:43:22;;;;;;;27.23;13.75;;;;;;;9.91;31.19;101005.94;21018898;28;20052;-74
2022/03/09 16:53:24;;;;;;;25.73;14.52;;;;;;;9.71;32.84;101005.16;21018420;28;20051;-70
2022/03/09 17:03:25;;;;;;;34.83;18.60;;;;;;;8.99;34.95;101011.31;20976949;28;20057;-75
2022/03/09 17:13:27;;;;;;;22.45;11.70;;;;;;;8.29;36.06;101038.97;20965605;28;20566;-74
2022/03/09 17:23:30;;;;;;;22.20;11.63;;;;;;;7.71;37.92;101055.19;20960028;28;20118;-73
2022/03/09 17:33:33;;;;;;;25.37;15.90;;;;;;;7.17;39.98;101069.53;20961917;28;20501;-72
2022/03/09 17:43:36;;;;;;;26.95;13.35;;;;;;;6.67;40.95;101068.19;20912296;22;20053;-68
2022/03/09 17:53:38;;;;;;;23.98;12.20;;;;;;;6.49;41.82;101093.13;20802723;28;20071;-65
2022/03/09 18:03:42;;;;;;;26.15;11.95;;;;;;;6.02;42.75;101102.03;20878097;28;20060;-65
2022/03/09 18:13:44;;;;;;;31.85;14.65;;;;;;;5.73;43.61;101116.31;20878555;28;20518;-65
2022/03/09 18:23:49;;;;;;;195.00;98.30;;;;;;;5.63;43.55;101116.16;20878249;28;20053;-66
2022/03/09 18:33:50;;;;;;;31.15;17.33;;;;;;;5.35;42.88;101120.03;20876823;28;20130;-66
2022/03/09 18:43:52;;;;;;;48.88;23.10;;;;;;;5.06;45.08;101108.25;20877132;28;20053;-66
2022/03/09 18:53:54;;;;;;;50.05;23.40;;;;;;;4.79;46.13;101121.59;20895256;28;20103;-67
2022/03/09 19:03:55;;;;;;;35.97;18.80;;;;;;;4.58;46.77;101122.03;20888026;28;20064;-65
2022/03/09 19:13:56;;;;;;;26.10;13.18;;;;;;;4.22;48.65;101133.41;20900062;28;20121;-65
2022/03/09 19:23:58;;;;;;;25.20;12.82;;;;;;;3.96;49.37;101129.34;20896369;28;20056;-65
2022/03/09 19:33:59;;;;;;;20.52;10.68;;;;;;;3.68;50.06;101139.06;20883705;28;20040;-65
2022/03/09 19:44:02;;;;;;;22.88;12.13;;;;;;;3.46;50.42;101129.91;20887110;28;20107;-65
2022/03/09 19:54:03;;;;;;;28.00;12.27;;;;;;;3.39;48.85;101134.88;20884724;28;20053;-65
2022/03/09 20:04:05;;;;;;;23.35;11.57;;;;;;;3.14;50.23;101149.78;20884682;28;20056;-65
2022/03/09 20:14:06;;;;;;;25.40;12.38;;;;;;;2.87;52.42;101159.38;20884199;28;20041;-65
2022/03/09 20:24:08;;;;;;;25.27;12.02;;;;;;;2.78;50.86;101150.53;20881208;28;20084;-65
2022/03/09 20:34:09;;;;;;;24.60;12.32;;;;;;;2.74;52.08;101164.22;20885101;28;20087;-65
2022/03/09 20:44:11;;;;;;;29.50;13.48;;;;;;;2.62;51.96;101155.22;20888414;28;20529;-65
2022/03/09 20:54:15;;;;;;;27.08;13.27;;;;;;;2.42;53.30;101170.16;20885384;28;20095;-65
2022/03/09 21:04:18;;;;;;;28.27;14.13;;;;;;;2.15;54.79;101175.34;20875857;28;20556;-65
2022/03/09 21:14:19;;;;;;;30.08;14.93;;;;;;;1.94;57.08;101173.00;20882431;28;20048;-64
2022/03/09 21:24:21;;;;;;;41.33;17.88;;;;;;;1.93;56.52;101179.00;20877133;28;20088;-65
2022/03/09 21:34:22;;;;;;;63.67;28.75;;;;;;;1.90;57.22;101189.22;20878064;28;20514;-67
2022/03/09 21:44:24;;;;;;;53.78;22.88;;;;;;;1.93;54.76;101186.75;20932097;28;20457;-67
2022/03/09 21:54:25;;;;;;;41.78;17.83;;;;;;;2.02;54.34;101192.19;20932211;28;20048;-67
2022/03/09 22:04:27;;;;;;;38.25;19.50;;;;;;;1.90;55.01;101199.53;20931227;28;20055;-66
2022/03/09 22:14:28;;;;;;;43.35;19.58;;;;;;;1.99;54.95;101194.69;20930711;28;20151;-67
2022/03/09 22:24:30;;;;;;;41.30;19.08;;;;;;;1.74;55.79;101193.91;20940688;28;20056;-67
2022/03/09 22:34:32;;;;;;;41.22;18.60;;;;;;;1.79;55.38;101175.97;20946459;28;20410;-67
2022/03/09 22:44:35;;;;;;;44.05;20.25;;;;;;;1.93;54.32;101179.00;20945207;28;20076;-67
2022/03/09 22:54:36;;;;;;;37.58;17.85;;;;;;;1.86;54.06;101190.81;20944875;28;20041;-67
2022/03/09 23:14:58;;;;;;;36.25;18.10;;;;;;;1.29;56.30;101195.78;20949959;28;20163;-67
2022/03/09 23:24:59;;;;;;;34.15;17.98;;;;;;;1.14;57.44;101210.75;20948682;28;20486;-67
2022/03/09 23:35:01;;;;;;;34.13;17.00;;;;;;;1.01;58.07;101202.59;20947181;28;20052;-67
2022/03/09 23:45:05;;;;;;;41.90;17.83;;;;;;;0.92;61.01;101222.00;20980370;22;20048;-74
2022/03/09 23:55:09;;;;;;;34.42;16.75;;;;;;;0.68;64.59;101221.97;21031711;28;20056;-71
